WetterOnline ( https://www.wetteronline.de )

Wetter aktuell Chemnitz

Aktuelles Wetter: Chemnitz (420m)

6-stündlich | Neueste Meldungen
Ortszeit Temperatur Wetter
So, 14.08. 20:00 25.3° C leicht bewölkt
So, 14.08. 14:00 28.0° C leicht bewölkt
So, 14.08. 8:00 18.1° C leicht bewölkt
So, 14.08. 2:00 17.0° C leicht bewölkt
Sa, 13.08. 20:00 21.5° C wolkig
Sa, 13.08. 14:00 19.0° C bedeckt
Sa, 13.08. 8:00 15.3° C leicht bewölkt
Sa, 13.08. 2:00 17.6° C wolkenlos
Ortszeit Temperatur Wetter
So, 14.08. 20:00 25.3° C leicht bewölkt
So, 14.08. 19:50 25.3° C leicht bewölkt
So, 14.08. 19:40 25.6° C leicht bewölkt
So, 14.08. 19:30 26.0° C bewölkt
So, 14.08. 19:20 26.0° C bewölkt
So, 14.08. 19:10 26.0° C bedeckt
So, 14.08. 19:00 26.3° C bedeckt
So, 14.08. 18:30 26.2° C bedeckt
So, 14.08. 18:00 26.6° C bedeckt
So, 14.08. 17:30 27.0° C wolkig
So, 14.08. 17:00 27.9° C wolkig
Ortszeit Relative Feuchte Sichtweite
So, 14.08. 20:00 48% 45 km
So, 14.08. 14:00 40% 40 km
So, 14.08. 8:00 82% 22 km
So, 14.08. 2:00 90% 27 km
Sa, 13.08. 20:00 67% 45 km
Sa, 13.08. 14:00 85% 22 km
Sa, 13.08. 8:00 69% 45 km
Sa, 13.08. 2:00 58% 55 km
Ortszeit Relative Feuchte Sichtweite
So, 14.08. 20:00 48% 45 km
So, 14.08. 19:50 48% -
So, 14.08. 19:40 47% -
So, 14.08. 19:30 44% 50 km
So, 14.08. 19:20 44% -
So, 14.08. 19:10 44% -
So, 14.08. 19:00 42% 55 km
So, 14.08. 18:30 42% 55 km
So, 14.08. 18:00 40% 55 km
So, 14.08. 17:30 39% 45 km
So, 14.08. 17:00 40% 55 km
Ortszeit Niederschlagsmenge Niederschlagsart
So, 14.08. 20:00 0.0 l/m2 in 12 Std. -
So, 14.08. 14:00 0.0 l/m2 in 6 Std. -
So, 14.08. 8:00 0.0 l/m2 in 12 Std. -
So, 14.08. 2:00 0.0 l/m2 in 6 Std. -
Sa, 13.08. 20:00 1 l/m2 in 12 Std. Regen
Sa, 13.08. 14:00 0.9 l/m2 in 6 Std. Regen
Sa, 13.08. 8:00 0.0 l/m2 in 12 Std. -
Sa, 13.08. 2:00 0.0 l/m2 in 6 Std. -
Ortszeit Niederschlagsmenge Niederschlagsart
So, 14.08. 20:00 0.0 l/m2 in 1 Std. -
So, 14.08. 19:50 keine Meldung -
So, 14.08. 19:40 keine Meldung -
So, 14.08. 19:30 0.0 l/m2 in 1 Std. -
So, 14.08. 19:20 keine Meldung -
So, 14.08. 19:10 keine Meldung -
So, 14.08. 19:00 0.0 l/m2 in 1 Std. -
So, 14.08. 18:30 0.0 l/m2 in 1 Std. -
So, 14.08. 18:00 0.0 l/m2 in 1 Std. -
So, 14.08. 17:30 0.0 l/m2 in 1 Std. -
So, 14.08. 17:00 0.0 l/m2 in 1 Std. -
Ortszeit Stärke Spitze Richtung
km/h Bft. km/h Grad Sektor
So, 14.08. 20:00 14 3 40 50° NO
So, 14.08. 14:00 18 3 36 60° NO
So, 14.08. 8:00 7 2 11 80° O
So, 14.08. 2:00 4 1 25 10° N
Sa, 13.08. 20:00 11 2 18 40° NO
Sa, 13.08. 14:00 7 2 25 50° NO
Sa, 13.08. 8:00 4 1 11 100° O
Sa, 13.08. 2:00 4 1 11 160° S
Ortszeit Stärke Spitze Richtung
km/h Bft. km/h Grad Sektor
So, 14.08. 20:00 14 3 25 50° NO
So, 14.08. 19:50 14 3 - 50° NO
So, 14.08. 19:40 13 3 - 60° NO
So, 14.08. 19:30 19 3 26 50° NO
So, 14.08. 19:20 19 3 - 50° NO
So, 14.08. 19:10 14 3 - 50° NO
So, 14.08. 19:00 14 3 25 60° NO
So, 14.08. 18:30 15 3 22 60° NO
So, 14.08. 18:00 15 3 30 50° NO
So, 14.08. 17:30 14 3 29 80° O
So, 14.08. 17:00 14 3 29 70° O
Ortszeit Untergrenze Bedeckung Gattung
total tief tief mittel hoch
So, 14.08. 20:00 3900 m 2/8 2/8 - - -
So, 14.08. 14:00 1500 m 6/8 1/8 - - -
So, 14.08. 8:00 2700 m 7/8 1/8 - - -
So, 14.08. 2:00 2700 m 6/8 1/8 - - -
Sa, 13.08. 20:00 1140 m 7/8 3/8 - - -
Sa, 13.08. 14:00 690 m 8/8 8/8 - - -
Sa, 13.08. 8:00 1500 m 6/8 1/8 - - -
Sa, 13.08. 2:00 - 0/8 0/8 - - -
Ortszeit Bedeckungsgrad in Achtel und Wolkenuntergrenze
So, 14.08. 20:00 2(3900m)
So, 14.08. 19:50 2(3900m)
So, 14.08. 19:40 3
So, 14.08. 19:30 7(3900m)
So, 14.08. 19:20 7(3900m)
So, 14.08. 19:10 8
So, 14.08. 19:00 8(3900m) 8(10500m)
So, 14.08. 18:30 8(3300m) 8(3900m) 8(10500m)
So, 14.08. 18:00 8(3000m) 8(3900m)
So, 14.08. 17:30 4(2700m) 7(3600m)
So, 14.08. 17:00 2(3600m) 7(10500m)
Ortszeit Luftdruck NN (hPa) Tendenz (hPa in 3 Std.)
So, 14.08. 20:00 1006 - 1,2
So, 14.08. 14:00 1009 - 1,8
So, 14.08. 8:00 1013 - 0,8
So, 14.08. 2:00 1015 - 0,8
Sa, 13.08. 20:00 1015 - 1,0
Sa, 13.08. 14:00 1018 - 0,5
Sa, 13.08. 8:00 1019 + 0,1
Sa, 13.08. 2:00 1019 - 0,1
Ortszeit Luftdruck NN (hPa) Tendenz (hPa in 3 Std.)
So, 14.08. 20:00 1006 - 1,2
So, 14.08. 19:50 1006 keine Meldung
So, 14.08. 19:40 1006 keine Meldung
So, 14.08. 19:30 1006 - 1,3
So, 14.08. 19:20 1006 keine Meldung
So, 14.08. 19:10 1006 keine Meldung
So, 14.08. 19:00 1007 - 1,1
So, 14.08. 18:30 1007 - 1,3
So, 14.08. 18:00 1007 - 1,4
So, 14.08. 17:30 1007 - 1,6
So, 14.08. 17:00 1007 - 1,7
Ortszeit Schneehöhe (cm)
So, 14.08. 20:00 0
So, 14.08. 14:00 0
So, 14.08. 8:00 0
So, 14.08. 2:00 0
Sa, 13.08. 20:00 0
Sa, 13.08. 14:00 0
Sa, 13.08. 8:00 0
Sa, 13.08. 2:00 0
Ortszeit Schneehöhe (cm)
So, 14.08. 20:00 0
So, 14.08. 19:50 0
So, 14.08. 19:40 0
So, 14.08. 19:30 0
So, 14.08. 19:20 0
So, 14.08. 19:10 0
So, 14.08. 19:00 0
So, 14.08. 18:30 0
So, 14.08. 18:00 0
So, 14.08. 17:30 0
So, 14.08. 17:00 0
Link zu dieser Seite / Seite empfehlen

Das Wetter in ...